sensor_id;sensor_type;location;lat;lon;timestamp;temperature;humidity
75824;DHT22;64457;51.976;9.834;2023-04-15T00:01:35;10.90;93.00
75824;DHT22;64457;51.976;9.834;2023-04-15T00:04:10;10.90;92.50
75824;DHT22;64457;51.976;9.834;2023-04-15T00:06:41;10.90;92.60
75824;DHT22;64457;51.976;9.834;2023-04-15T00:09:09;10.80;92.70
75824;DHT22;64457;51.976;9.834;2023-04-15T00:11:41;10.80;92.80
75824;DHT22;64457;51.976;9.834;2023-04-15T00:14:14;10.70;92.80
75824;DHT22;64457;51.976;9.834;2023-04-15T00:16:43;10.50;93.10
75824;DHT22;64457;51.976;9.834;2023-04-15T00:19:24;10.50;93.10
75824;DHT22;64457;51.976;9.834;2023-04-15T00:22:45;10.50;93.40
75824;DHT22;64457;51.976;9.834;2023-04-15T00:25:16;10.70;93.60
75824;DHT22;64457;51.976;9.834;2023-04-15T00:27:54;10.70;93.60
75824;DHT22;64457;51.976;9.834;2023-04-15T00:30:38;10.70;93.40
75824;DHT22;64457;51.976;9.834;2023-04-15T00:36:22;10.80;93.30
75824;DHT22;64457;51.976;9.834;2023-04-15T00:38:57;10.80;93.50
75824;DHT22;64457;51.976;9.834;2023-04-15T00:41:35;10.80;93.40
75824;DHT22;64457;51.976;9.834;2023-04-15T00:48:46;10.80;93.40
75824;DHT22;64457;51.976;9.834;2023-04-15T00:51:17;10.90;93.30
75824;DHT22;64457;51.976;9.834;2023-04-15T00:54:29;11.10;93.20
75824;DHT22;64457;51.976;9.834;2023-04-15T00:57:24;11.10;93.20
75824;DHT22;64457;51.976;9.834;2023-04-15T00:59:55;11.10;93.10
75824;DHT22;64457;51.976;9.834;2023-04-15T01:02:50;11.10;92.80
75824;DHT22;64457;51.976;9.834;2023-04-15T01:08:16;11.20;92.90
75824;DHT22;64457;51.976;9.834;2023-04-15T01:10:47;11.20;92.70
75824;DHT22;64457;51.976;9.834;2023-04-15T01:13:46;11.30;92.70
75824;DHT22;64457;51.976;9.834;2023-04-15T01:16:39;11.40;92.60
75824;DHT22;64457;51.976;9.834;2023-04-15T01:19:25;11.50;92.30
75824;DHT22;64457;51.976;9.834;2023-04-15T01:22:28;11.50;92.30
75824;DHT22;64457;51.976;9.834;2023-04-15T01:25:11;11.60;92.20
75824;DHT22;64457;51.976;9.834;2023-04-15T01:28:14;11.70;92.00
75824;DHT22;64457;51.976;9.834;2023-04-15T01:31:11;11.60;92.20
75824;DHT22;64457;51.976;9.834;2023-04-15T01:34:13;11.50;92.00
75824;DHT22;64457;51.976;9.834;2023-04-15T01:36:50;11.40;92.40
75824;DHT22;64457;51.976;9.834;2023-04-15T01:39:52;11.40;92.40
75824;DHT22;64457;51.976;9.834;2023-04-15T01:43:12;11.50;92.40
75824;DHT22;64457;51.976;9.834;2023-04-15T01:45:51;11.40;92.30
75824;DHT22;64457;51.976;9.834;2023-04-15T01:48:43;11.40;92.60
75824;DHT22;64457;51.976;9.834;2023-04-15T01:51:13;11.40;92.20
75824;DHT22;64457;51.976;9.834;2023-04-15T01:53:47;11.40;92.40
75824;DHT22;64457;51.976;9.834;2023-04-15T01:56:15;11.20;92.70
75824;DHT22;64457;51.976;9.834;2023-04-15T01:58:57;11.20;92.60
75824;DHT22;64457;51.976;9.834;2023-04-15T02:01:38;11.30;92.70
75824;DHT22;64457;51.976;9.834;2023-04-15T02:04:17;11.30;92.90
75824;DHT22;64457;51.976;9.834;2023-04-15T02:06:46;11.20;92.80
75824;DHT22;64457;51.976;9.834;2023-04-15T02:12:57;11.10;93.10
75824;DHT22;64457;51.976;9.834;2023-04-15T02:16:29;11.00;93.30
75824;DHT22;64457;51.976;9.834;2023-04-15T02:18:59;11.00;93.10
75824;DHT22;64457;51.976;9.834;2023-04-15T02:21:28;11.00;93.30
75824;DHT22;64457;51.976;9.834;2023-04-15T02:23:57;10.90;93.40
75824;DHT22;64457;51.976;9.834;2023-04-15T02:26:26;11.00;93.30
75824;DHT22;64457;51.976;9.834;2023-04-15T02:32:12;11.00;93.60
75824;DHT22;64457;51.976;9.834;2023-04-15T02:35:17;11.00;93.20
75824;DHT22;64457;51.976;9.834;2023-04-15T02:38:10;11.00;93.10
75824;DHT22;64457;51.976;9.834;2023-04-15T02:40:43;11.10;93.30
75824;DHT22;64457;51.976;9.834;2023-04-15T02:43:13;11.20;93.20
75824;DHT22;64457;51.976;9.834;2023-04-15T02:45:44;11.30;93.00
75824;DHT22;64457;51.976;9.834;2023-04-15T02:48:26;11.40;92.70
75824;DHT22;64457;51.976;9.834;2023-04-15T02:51:48;11.40;92.60
75824;DHT22;64457;51.976;9.834;2023-04-15T02:59:09;11.20;92.90
75824;DHT22;64457;51.976;9.834;2023-04-15T03:01:57;11.00;93.10
75824;DHT22;64457;51.976;9.834;2023-04-15T03:04:28;11.00;93.30
75824;DHT22;64457;51.976;9.834;2023-04-15T03:06:57;11.00;93.50
75824;DHT22;64457;51.976;9.834;2023-04-15T03:09:39;11.10;93.10
75824;DHT22;64457;51.976;9.834;2023-04-15T03:13:05;11.10;93.10
75824;DHT22;64457;51.976;9.834;2023-04-15T03:15:55;11.10;92.90
75824;DHT22;64457;51.976;9.834;2023-04-15T03:19:02;11.10;93.40
75824;DHT22;64457;51.976;9.834;2023-04-15T03:21:31;11.10;93.20
75824;DHT22;64457;51.976;9.834;2023-04-15T03:24:31;11.10;93.30
75824;DHT22;64457;51.976;9.834;2023-04-15T03:30:46;11.00;93.20
75824;DHT22;64457;51.976;9.834;2023-04-15T03:33:15;11.00;93.60
75824;DHT22;64457;51.976;9.834;2023-04-15T03:37:02;11.10;93.30
75824;DHT22;64457;51.976;9.834;2023-04-15T03:39:45;11.10;93.50
75824;DHT22;64457;51.976;9.834;2023-04-15T03:43:13;11.10;93.50
75824;DHT22;64457;51.976;9.834;2023-04-15T03:47:21;11.00;93.60
75824;DHT22;64457;51.976;9.834;2023-04-15T03:50:24;10.90;93.90
75824;DHT22;64457;51.976;9.834;2023-04-15T03:55:52;10.80;94.30
75824;DHT22;64457;51.976;9.834;2023-04-15T03:58:22;10.80;94.40
75824;DHT22;64457;51.976;9.834;2023-04-15T04:00:51;10.70;94.90
75824;DHT22;64457;51.976;9.834;2023-04-15T04:03:21;10.60;95.00
75824;DHT22;64457;51.976;9.834;2023-04-15T04:05:52;10.70;94.80
75824;DHT22;64457;51.976;9.834;2023-04-15T04:08:22;10.90;94.70
75824;DHT22;64457;51.976;9.834;2023-04-15T04:10:54;11.00;94.60
75824;DHT22;64457;51.976;9.834;2023-04-15T04:13:22;10.90;94.50
75824;DHT22;64457;51.976;9.834;2023-04-15T04:15:50;11.00;94.60
75824;DHT22;64457;51.976;9.834;2023-04-15T04:18:22;11.00;94.50
75824;DHT22;64457;51.976;9.834;2023-04-15T04:21:05;11.00;94.40
75824;DHT22;64457;51.976;9.834;2023-04-15T04:23:46;11.10;94.10
75824;DHT22;64457;51.976;9.834;2023-04-15T04:26:47;11.10;94.10
75824;DHT22;64457;51.976;9.834;2023-04-15T04:29:33;11.10;94.60
75824;DHT22;64457;51.976;9.834;2023-04-15T04:32:01;11.10;94.40
75824;DHT22;64457;51.976;9.834;2023-04-15T04:34:29;11.00;94.70
75824;DHT22;64457;51.976;9.834;2023-04-15T04:36:57;11.00;95.00
75824;DHT22;64457;51.976;9.834;2023-04-15T04:39:26;11.10;94.80
75824;DHT22;64457;51.976;9.834;2023-04-15T04:42:01;11.00;94.80
75824;DHT22;64457;51.976;9.834;2023-04-15T04:44:29;10.90;95.10
75824;DHT22;64457;51.976;9.834;2023-04-15T04:46:57;10.90;95.20
75824;DHT22;64457;51.976;9.834;2023-04-15T04:49:24;10.80;95.30
75824;DHT22;64457;51.976;9.834;2023-04-15T04:51:52;10.70;95.50
75824;DHT22;64457;51.976;9.834;2023-04-15T04:54:20;10.70;95.60
75824;DHT22;64457;51.976;9.834;2023-04-15T04:56:50;10.70;95.90
75824;DHT22;64457;51.976;9.834;2023-04-15T04:59:17;10.80;95.90
75824;DHT22;64457;51.976;9.834;2023-04-15T05:01:45;10.80;95.80
75824;DHT22;64457;51.976;9.834;2023-04-15T05:04:13;10.90;95.80
75824;DHT22;64457;51.976;9.834;2023-04-15T05:06:41;10.90;95.60
75824;DHT22;64457;51.976;9.834;2023-04-15T05:09:08;11.10;95.20
75824;DHT22;64457;51.976;9.834;2023-04-15T05:11:36;11.10;95.60
75824;DHT22;64457;51.976;9.834;2023-04-15T05:14:08;11.10;95.40
75824;DHT22;64457;51.976;9.834;2023-04-15T05:16:36;10.90;95.70
75824;DHT22;64457;51.976;9.834;2023-04-15T05:19:04;10.90;95.90
75824;DHT22;64457;51.976;9.834;2023-04-15T05:21:32;10.90;95.90
75824;DHT22;64457;51.976;9.834;2023-04-15T05:24:00;11.00;95.90
75824;DHT22;64457;51.976;9.834;2023-04-15T05:26:28;10.90;96.10
75824;DHT22;64457;51.976;9.834;2023-04-15T05:28:56;10.90;96.30
75824;DHT22;64457;51.976;9.834;2023-04-15T05:31:25;10.80;96.50
75824;DHT22;64457;51.976;9.834;2023-04-15T05:33:53;10.80;96.40
75824;DHT22;64457;51.976;9.834;2023-04-15T05:36:21;10.70;96.60
75824;DHT22;64457;51.976;9.834;2023-04-15T05:38:48;10.80;96.70
75824;DHT22;64457;51.976;9.834;2023-04-15T05:41:16;10.80;96.60
75824;DHT22;64457;51.976;9.834;2023-04-15T05:44:00;10.70;96.70
75824;DHT22;64457;51.976;9.834;2023-04-15T05:46:40;10.80;96.50
75824;DHT22;64457;51.976;9.834;2023-04-15T05:49:08;10.80;96.80
75824;DHT22;64457;51.976;9.834;2023-04-15T05:51:36;10.90;96.50
75824;DHT22;64457;51.976;9.834;2023-04-15T05:54:05;10.90;96.50
75824;DHT22;64457;51.976;9.834;2023-04-15T05:56:33;10.80;96.60
75824;DHT22;64457;51.976;9.834;2023-04-15T05:59:00;10.90;96.40
75824;DHT22;64457;51.976;9.834;2023-04-15T06:01:48;10.90;96.30
75824;DHT22;64457;51.976;9.834;2023-04-15T06:04:30;10.80;96.70
75824;DHT22;64457;51.976;9.834;2023-04-15T06:06:58;10.80;96.70
75824;DHT22;64457;51.976;9.834;2023-04-15T06:09:26;10.70;96.80
75824;DHT22;64457;51.976;9.834;2023-04-15T06:11:53;10.80;96.70
75824;DHT22;64457;51.976;9.834;2023-04-15T06:14:28;10.70;96.80
75824;DHT22;64457;51.976;9.834;2023-04-15T06:16:57;10.70;96.90
75824;DHT22;64457;51.976;9.834;2023-04-15T06:19:25;10.70;97.20
75824;DHT22;64457;51.976;9.834;2023-04-15T06:21:53;10.70;97.20
75824;DHT22;64457;51.976;9.834;2023-04-15T06:24:21;10.70;96.90
75824;DHT22;64457;51.976;9.834;2023-04-15T06:26:48;10.60;97.10
75824;DHT22;64457;51.976;9.834;2023-04-15T06:29:17;10.60;97.00
75824;DHT22;64457;51.976;9.834;2023-04-15T06:31:46;10.60;96.90
75824;DHT22;64457;51.976;9.834;2023-04-15T06:34:16;10.60;97.20
75824;DHT22;64457;51.976;9.834;2023-04-15T06:36:47;10.50;97.60
75824;DHT22;64457;51.976;9.834;2023-04-15T06:39:15;10.50;97.60
75824;DHT22;64457;51.976;9.834;2023-04-15T06:41:43;10.50;97.30
75824;DHT22;64457;51.976;9.834;2023-04-15T06:44:12;10.60;97.50
75824;DHT22;64457;51.976;9.834;2023-04-15T06:46:41;10.60;97.40
75824;DHT22;64457;51.976;9.834;2023-04-15T06:49:09;10.50;97.50
75824;DHT22;64457;51.976;9.834;2023-04-15T06:51:38;10.70;97.30
75824;DHT22;64457;51.976;9.834;2023-04-15T06:54:24;11.00;97.20
75824;DHT22;64457;51.976;9.834;2023-04-15T06:56:51;11.10;96.70
75824;DHT22;64457;51.976;9.834;2023-04-15T06:59:19;11.20;96.60
75824;DHT22;64457;51.976;9.834;2023-04-15T07:01:47;11.10;96.50
75824;DHT22;64457;51.976;9.834;2023-04-15T07:04:15;10.90;96.90
75824;DHT22;64457;51.976;9.834;2023-04-15T07:06:45;10.90;96.90
75824;DHT22;64457;51.976;9.834;2023-04-15T07:09:12;10.80;97.20
75824;DHT22;64457;51.976;9.834;2023-04-15T07:11:42;10.60;97.60
75824;DHT22;64457;51.976;9.834;2023-04-15T07:14:10;10.60;97.60
75824;DHT22;64457;51.976;9.834;2023-04-15T07:16:38;10.50;97.80
75824;DHT22;64457;51.976;9.834;2023-04-15T07:19:06;10.60;97.80
75824;DHT22;64457;51.976;9.834;2023-04-15T07:21:34;10.80;98.10
75824;DHT22;64457;51.976;9.834;2023-04-15T07:24:05;11.00;97.30
75824;DHT22;64457;51.976;9.834;2023-04-15T07:26:35;11.30;97.00
75824;DHT22;64457;51.976;9.834;2023-04-15T07:29:02;11.40;96.60
75824;DHT22;64457;51.976;9.834;2023-04-15T07:31:31;11.50;96.30
75824;DHT22;64457;51.976;9.834;2023-04-15T07:33:58;11.60;96.20
75824;DHT22;64457;51.976;9.834;2023-04-15T07:36:35;11.70;96.00
75824;DHT22;64457;51.976;9.834;2023-04-15T07:39:13;11.50;96.10
75824;DHT22;64457;51.976;9.834;2023-04-15T07:41:41;11.50;95.90
75824;DHT22;64457;51.976;9.834;2023-04-15T07:44:08;11.40;96.00
75824;DHT22;64457;51.976;9.834;2023-04-15T07:46:39;11.50;96.00
75824;DHT22;64457;51.976;9.834;2023-04-15T07:49:10;11.60;95.80
75824;DHT22;64457;51.976;9.834;2023-04-15T07:51:44;11.60;95.70
75824;DHT22;64457;51.976;9.834;2023-04-15T07:54:32;11.60;96.50
75824;DHT22;64457;51.976;9.834;2023-04-15T07:57:00;11.50;96.20
75824;DHT22;64457;51.976;9.834;2023-04-15T07:59:29;11.50;96.50
75824;DHT22;64457;51.976;9.834;2023-04-15T08:02:01;11.50;96.20
75824;DHT22;64457;51.976;9.834;2023-04-15T08:04:31;11.50;96.50
75824;DHT22;64457;51.976;9.834;2023-04-15T08:07:10;11.40;96.70
75824;DHT22;64457;51.976;9.834;2023-04-15T08:09:40;11.20;96.90
75824;DHT22;64457;51.976;9.834;2023-04-15T08:12:08;11.20;97.30
75824;DHT22;64457;51.976;9.834;2023-04-15T08:14:38;11.30;96.90
75824;DHT22;64457;51.976;9.834;2023-04-15T08:17:07;11.00;97.50
75824;DHT22;64457;51.976;9.834;2023-04-15T08:19:43;11.00;97.70
75824;DHT22;64457;51.976;9.834;2023-04-15T08:22:15;11.10;97.80
75824;DHT22;64457;51.976;9.834;2023-04-15T08:24:45;11.10;97.80
75824;DHT22;64457;51.976;9.834;2023-04-15T08:27:12;11.10;97.80
75824;DHT22;64457;51.976;9.834;2023-04-15T08:29:42;11.20;97.40
75824;DHT22;64457;51.976;9.834;2023-04-15T08:32:11;11.30;97.60
75824;DHT22;64457;51.976;9.834;2023-04-15T08:34:39;11.20;97.70
75824;DHT22;64457;51.976;9.834;2023-04-15T08:37:07;11.30;97.60
75824;DHT22;64457;51.976;9.834;2023-04-15T08:39:37;11.30;97.70
75824;DHT22;64457;51.976;9.834;2023-04-15T08:42:11;11.40;97.70
75824;DHT22;64457;51.976;9.834;2023-04-15T08:44:45;11.40;97.30
75824;DHT22;64457;51.976;9.834;2023-04-15T08:47:17;11.40;97.40
75824;DHT22;64457;51.976;9.834;2023-04-15T08:49:54;11.60;97.00
75824;DHT22;64457;51.976;9.834;2023-04-15T08:52:26;11.70;97.10
75824;DHT22;64457;51.976;9.834;2023-04-15T08:54:57;11.70;96.90
75824;DHT22;64457;51.976;9.834;2023-04-15T08:57:28;11.70;96.90
75824;DHT22;64457;51.976;9.834;2023-04-15T08:59:56;11.60;97.00
75824;DHT22;64457;51.976;9.834;2023-04-15T09:02:28;11.50;97.50
75824;DHT22;64457;51.976;9.834;2023-04-15T09:04:57;11.50;97.70
75824;DHT22;64457;51.976;9.834;2023-04-15T09:07:32;11.50;97.50
75824;DHT22;64457;51.976;9.834;2023-04-15T09:10:05;11.70;97.50
75824;DHT22;64457;51.976;9.834;2023-04-15T09:12:36;11.40;97.70
75824;DHT22;64457;51.976;9.834;2023-04-15T09:15:05;11.40;97.80
75824;DHT22;64457;51.976;9.834;2023-04-15T09:17:42;11.30;98.20
75824;DHT22;64457;51.976;9.834;2023-04-15T09:20:11;11.40;98.20
75824;DHT22;64457;51.976;9.834;2023-04-15T09:22:42;11.30;98.40
75824;DHT22;64457;51.976;9.834;2023-04-15T09:25:27;11.10;98.40
75824;DHT22;64457;51.976;9.834;2023-04-15T09:28:00;11.20;98.80
75824;DHT22;64457;51.976;9.834;2023-04-15T09:30:28;11.30;98.60
75824;DHT22;64457;51.976;9.834;2023-04-15T09:33:00;11.20;98.50
75824;DHT22;64457;51.976;9.834;2023-04-15T09:35:29;11.20;98.80
75824;DHT22;64457;51.976;9.834;2023-04-15T09:38:04;11.30;98.80
75824;DHT22;64457;51.976;9.834;2023-04-15T09:40:33;11.40;98.50
75824;DHT22;64457;51.976;9.834;2023-04-15T09:43:14;11.40;98.30
75824;DHT22;64457;51.976;9.834;2023-04-15T09:45:47;11.30;98.60
75824;DHT22;64457;51.976;9.834;2023-04-15T09:48:18;11.40;98.60
75824;DHT22;64457;51.976;9.834;2023-04-15T09:50:50;11.40;98.40
75824;DHT22;64457;51.976;9.834;2023-04-15T09:53:20;11.30;98.30
75824;DHT22;64457;51.976;9.834;2023-04-15T09:55:49;11.40;98.60
75824;DHT22;64457;51.976;9.834;2023-04-15T09:58:20;11.50;98.90
75824;DHT22;64457;51.976;9.834;2023-04-15T10:00:49;11.30;98.50
75824;DHT22;64457;51.976;9.834;2023-04-15T10:03:20;11.20;98.80
75824;DHT22;64457;51.976;9.834;2023-04-15T10:05:58;11.10;98.70
75824;DHT22;64457;51.976;9.834;2023-04-15T10:08:28;11.20;98.80
75824;DHT22;64457;51.976;9.834;2023-04-15T10:11:01;11.20;99.00
75824;DHT22;64457;51.976;9.834;2023-04-15T10:13:35;11.30;99.00
75824;DHT22;64457;51.976;9.834;2023-04-15T10:16:08;11.30;99.10
75824;DHT22;64457;51.976;9.834;2023-04-15T10:18:41;11.30;99.00
75824;DHT22;64457;51.976;9.834;2023-04-15T10:21:13;11.30;98.70
75824;DHT22;64457;51.976;9.834;2023-04-15T10:23:45;11.40;98.70
75824;DHT22;64457;51.976;9.834;2023-04-15T10:26:13;11.40;98.90
75824;DHT22;64457;51.976;9.834;2023-04-15T10:28:46;11.40;99.10
75824;DHT22;64457;51.976;9.834;2023-04-15T10:31:14;11.50;99.20
75824;DHT22;64457;51.976;9.834;2023-04-15T10:33:54;11.40;98.90
75824;DHT22;64457;51.976;9.834;2023-04-15T10:36:26;11.60;98.90
75824;DHT22;64457;51.976;9.834;2023-04-15T10:38:54;11.60;98.70
75824;DHT22;64457;51.976;9.834;2023-04-15T10:41:25;11.50;98.80
75824;DHT22;64457;51.976;9.834;2023-04-15T10:44:02;11.60;98.90
75824;DHT22;64457;51.976;9.834;2023-04-15T10:46:37;11.60;98.90
75824;DHT22;64457;51.976;9.834;2023-04-15T10:49:11;11.70;98.80
75824;DHT22;64457;51.976;9.834;2023-04-15T10:51:45;11.50;99.10
75824;DHT22;64457;51.976;9.834;2023-04-15T10:54:31;11.60;99.10
75824;DHT22;64457;51.976;9.834;2023-04-15T10:57:14;11.70;99.10
75824;DHT22;64457;51.976;9.834;2023-04-15T11:00:02;11.90;98.60
75824;DHT22;64457;51.976;9.834;2023-04-15T11:02:41;11.80;98.80
75824;DHT22;64457;51.976;9.834;2023-04-15T11:05:16;11.80;99.00
75824;DHT22;64457;51.976;9.834;2023-04-15T11:07:55;11.90;99.20
75824;DHT22;64457;51.976;9.834;2023-04-15T11:10:51;11.90;98.70
75824;DHT22;64457;51.976;9.834;2023-04-15T11:13:22;11.80;99.00
75824;DHT22;64457;51.976;9.834;2023-04-15T11:15:56;11.90;99.40
75824;DHT22;64457;51.976;9.834;2023-04-15T11:18:33;11.80;99.20
75824;DHT22;64457;51.976;9.834;2023-04-15T11:21:03;11.80;98.90
75824;DHT22;64457;51.976;9.834;2023-04-15T11:23:38;11.80;99.10
75824;DHT22;64457;51.976;9.834;2023-04-15T11:26:10;11.70;99.40
75824;DHT22;64457;51.976;9.834;2023-04-15T11:28:49;11.60;99.70
75824;DHT22;64457;51.976;9.834;2023-04-15T11:31:21;11.80;99.30
75824;DHT22;64457;51.976;9.834;2023-04-15T11:33:53;11.90;99.30
75824;DHT22;64457;51.976;9.834;2023-04-15T11:36:27;12.00;99.20
75824;DHT22;64457;51.976;9.834;2023-04-15T11:38:57;12.00;98.90
75824;DHT22;64457;51.976;9.834;2023-04-15T11:41:28;11.90;99.20
75824;DHT22;64457;51.976;9.834;2023-04-15T11:44:15;12.00;99.10
75824;DHT22;64457;51.976;9.834;2023-04-15T11:46:51;12.00;99.00
75824;DHT22;64457;51.976;9.834;2023-04-15T11:49:28;12.00;98.90
75824;DHT22;64457;51.976;9.834;2023-04-15T11:51:58;12.00;99.30
75824;DHT22;64457;51.976;9.834;2023-04-15T11:54:26;12.10;98.90
75824;DHT22;64457;51.976;9.834;2023-04-15T11:56:54;12.00;99.00
75824;DHT22;64457;51.976;9.834;2023-04-15T11:59:22;11.80;99.30
75824;DHT22;64457;51.976;9.834;2023-04-15T12:01:51;11.70;99.80
75824;DHT22;64457;51.976;9.834;2023-04-15T12:04:19;11.70;99.80
75824;DHT22;64457;51.976;9.834;2023-04-15T12:06:48;11.70;99.80
75824;DHT22;64457;51.976;9.834;2023-04-15T12:09:16;11.80;99.60
75824;DHT22;64457;51.976;9.834;2023-04-15T12:11:46;11.90;99.70
75824;DHT22;64457;51.976;9.834;2023-04-15T12:14:23;11.90;99.70
75824;DHT22;64457;51.976;9.834;2023-04-15T12:16:56;11.80;99.90
75824;DHT22;64457;51.976;9.834;2023-04-15T12:19:28;11.90;99.90
75824;DHT22;64457;51.976;9.834;2023-04-15T12:21:59;12.00;99.70
75824;DHT22;64457;51.976;9.834;2023-04-15T12:24:30;11.90;99.90
75824;DHT22;64457;51.976;9.834;2023-04-15T12:27:02;11.90;99.90
75824;DHT22;64457;51.976;9.834;2023-04-15T12:29:33;11.80;99.90
75824;DHT22;64457;51.976;9.834;2023-04-15T12:32:08;11.80;99.90
75824;DHT22;64457;51.976;9.834;2023-04-15T12:34:43;11.90;99.90
75824;DHT22;64457;51.976;9.834;2023-04-15T12:37:13;12.00;99.90
75824;DHT22;64457;51.976;9.834;2023-04-15T12:39:45;12.20;99.90
75824;DHT22;64457;51.976;9.834;2023-04-15T12:42:14;12.40;99.80
75824;DHT22;64457;51.976;9.834;2023-04-15T12:44:42;12.50;99.90
75824;DHT22;64457;51.976;9.834;2023-04-15T12:47:14;12.50;99.80
75824;DHT22;64457;51.976;9.834;2023-04-15T12:49:42;12.50;99.50
75824;DHT22;64457;51.976;9.834;2023-04-15T12:52:11;12.50;99.80
75824;DHT22;64457;51.976;9.834;2023-04-15T12:54:40;12.60;99.40
75824;DHT22;64457;51.976;9.834;2023-04-15T12:57:08;12.60;99.70
75824;DHT22;64457;51.976;9.834;2023-04-15T12:59:36;12.60;99.90
75824;DHT22;64457;51.976;9.834;2023-04-15T13:02:04;12.40;99.90
75824;DHT22;64457;51.976;9.834;2023-04-15T13:04:34;12.50;99.90
75824;DHT22;64457;51.976;9.834;2023-04-15T13:07:02;12.50;99.90
75824;DHT22;64457;51.976;9.834;2023-04-15T13:09:30;12.50;99.90
75824;DHT22;64457;51.976;9.834;2023-04-15T13:11:58;12.60;99.90
75824;DHT22;64457;51.976;9.834;2023-04-15T13:14:34;12.60;99.90
75824;DHT22;64457;51.976;9.834;2023-04-15T13:17:05;12.70;99.80
75824;DHT22;64457;51.976;9.834;2023-04-15T13:19:37;12.70;99.90
75824;DHT22;64457;51.976;9.834;2023-04-15T13:22:05;12.60;99.90
75824;DHT22;64457;51.976;9.834;2023-04-15T13:24:33;12.70;99.90
75824;DHT22;64457;51.976;9.834;2023-04-15T13:27:02;12.80;99.80
75824;DHT22;64457;51.976;9.834;2023-04-15T13:29:30;13.00;99.90
75824;DHT22;64457;51.976;9.834;2023-04-15T13:31:58;13.10;99.50
75824;DHT22;64457;51.976;9.834;2023-04-15T13:34:31;13.10;99.50
75824;DHT22;64457;51.976;9.834;2023-04-15T13:37:05;13.00;99.80
75824;DHT22;64457;51.976;9.834;2023-04-15T13:39:34;13.10;99.60
75824;DHT22;64457;51.976;9.834;2023-04-15T13:42:04;13.10;99.60
75824;DHT22;64457;51.976;9.834;2023-04-15T13:44:35;13.10;99.60
75824;DHT22;64457;51.976;9.834;2023-04-15T13:47:04;13.30;99.50
75824;DHT22;64457;51.976;9.834;2023-04-15T13:49:33;13.40;99.20
75824;DHT22;64457;51.976;9.834;2023-04-15T13:52:02;13.50;99.30
75824;DHT22;64457;51.976;9.834;2023-04-15T13:54:30;13.50;99.00
75824;DHT22;64457;51.976;9.834;2023-04-15T13:57:04;13.60;99.30
75824;DHT22;64457;51.976;9.834;2023-04-15T13:59:32;13.70;98.90
75824;DHT22;64457;51.976;9.834;2023-04-15T14:02:01;13.50;99.40
75824;DHT22;64457;51.976;9.834;2023-04-15T14:04:32;13.40;99.40
75824;DHT22;64457;51.976;9.834;2023-04-15T14:07:01;13.30;99.40
75824;DHT22;64457;51.976;9.834;2023-04-15T14:09:29;13.40;99.50
75824;DHT22;64457;51.976;9.834;2023-04-15T14:11:57;13.40;99.50
75824;DHT22;64457;51.976;9.834;2023-04-15T14:14:26;13.40;99.50
75824;DHT22;64457;51.976;9.834;2023-04-15T14:16:55;13.30;99.30
75824;DHT22;64457;51.976;9.834;2023-04-15T14:19:23;13.40;99.50
75824;DHT22;64457;51.976;9.834;2023-04-15T14:21:52;13.40;99.60
75824;DHT22;64457;51.976;9.834;2023-04-15T14:24:26;13.50;99.40
75824;DHT22;64457;51.976;9.834;2023-04-15T14:26:58;13.40;99.90
75824;DHT22;64457;51.976;9.834;2023-04-15T14:29:27;13.40;99.60
75824;DHT22;64457;51.976;9.834;2023-04-15T14:31:57;13.50;99.60
75824;DHT22;64457;51.976;9.834;2023-04-15T14:34:29;13.50;99.80
75824;DHT22;64457;51.976;9.834;2023-04-15T14:36:59;13.60;99.30
75824;DHT22;64457;51.976;9.834;2023-04-15T14:39:29;13.80;99.10
75824;DHT22;64457;51.976;9.834;2023-04-15T14:41:57;14.00;99.00
75824;DHT22;64457;51.976;9.834;2023-04-15T14:44:26;14.40;98.80
75824;DHT22;64457;51.976;9.834;2023-04-15T14:46:54;14.50;98.00
75824;DHT22;64457;51.976;9.834;2023-04-15T14:49:24;14.50;97.90
75824;DHT22;64457;51.976;9.834;2023-04-15T14:51:57;14.40;97.90
75824;DHT22;64457;51.976;9.834;2023-04-15T14:54:25;14.20;98.70
75824;DHT22;64457;51.976;9.834;2023-04-15T14:56:56;14.10;98.80
75824;DHT22;64457;51.976;9.834;2023-04-15T14:59:33;14.30;99.00
75824;DHT22;64457;51.976;9.834;2023-04-15T15:02:20;14.20;98.90
75824;DHT22;64457;51.976;9.834;2023-04-15T15:04:50;14.30;99.00
75824;DHT22;64457;51.976;9.834;2023-04-15T15:07:18;14.30;98.70
75824;DHT22;64457;51.976;9.834;2023-04-15T15:09:50;14.20;98.60
75824;DHT22;64457;51.976;9.834;2023-04-15T15:12:19;14.30;98.50
75824;DHT22;64457;51.976;9.834;2023-04-15T15:14:48;14.30;98.60
75824;DHT22;64457;51.976;9.834;2023-04-15T15:17:17;14.40;98.50
75824;DHT22;64457;51.976;9.834;2023-04-15T15:19:45;14.50;98.20
75824;DHT22;64457;51.976;9.834;2023-04-15T15:22:14;14.60;98.20
75824;DHT22;64457;51.976;9.834;2023-04-15T15:24:42;14.70;98.40
75824;DHT22;64457;51.976;9.834;2023-04-15T15:27:10;15.00;98.30
75824;DHT22;64457;51.976;9.834;2023-04-15T15:29:39;15.10;97.60
75824;DHT22;64457;51.976;9.834;2023-04-15T15:32:08;15.00;97.50
75824;DHT22;64457;51.976;9.834;2023-04-15T15:34:36;15.00;97.50
75824;DHT22;64457;51.976;9.834;2023-04-15T15:37:05;15.00;98.00
75824;DHT22;64457;51.976;9.834;2023-04-15T15:39:33;15.00;98.00
75824;DHT22;64457;51.976;9.834;2023-04-15T15:42:41;15.20;97.60
75824;DHT22;64457;51.976;9.834;2023-04-15T15:45:52;15.50;97.50
75824;DHT22;64457;51.976;9.834;2023-04-15T15:48:20;16.00;97.40
75824;DHT22;64457;51.976;9.834;2023-04-15T15:50:49;16.30;96.80
75824;DHT22;64457;51.976;9.834;2023-04-15T15:53:19;16.50;96.50
75824;DHT22;64457;51.976;9.834;2023-04-15T15:55:50;16.80;96.20
75824;DHT22;64457;51.976;9.834;2023-04-15T15:58:17;16.60;95.40
75824;DHT22;64457;51.976;9.834;2023-04-15T16:00:46;16.60;95.60
75824;DHT22;64457;51.976;9.834;2023-04-15T16:03:18;16.70;95.10
75824;DHT22;64457;51.976;9.834;2023-04-15T16:05:46;16.60;94.90
75824;DHT22;64457;51.976;9.834;2023-04-15T16:08:15;16.30;95.40
75824;DHT22;64457;51.976;9.834;2023-04-15T16:10:45;16.10;95.80
75824;DHT22;64457;51.976;9.834;2023-04-15T16:13:12;16.10;95.80
75824;DHT22;64457;51.976;9.834;2023-04-15T16:15:44;16.00;95.70
75824;DHT22;64457;51.976;9.834;2023-04-15T16:18:16;15.80;95.80
75824;DHT22;64457;51.976;9.834;2023-04-15T16:20:44;15.60;95.90
75824;DHT22;64457;51.976;9.834;2023-04-15T16:23:16;15.50;96.30
75824;DHT22;64457;51.976;9.834;2023-04-15T16:25:49;15.30;96.60
75824;DHT22;64457;51.976;9.834;2023-04-15T16:28:20;15.40;96.60
75824;DHT22;64457;51.976;9.834;2023-04-15T16:30:48;15.30;96.70
75824;DHT22;64457;51.976;9.834;2023-04-15T16:33:18;15.30;96.50
75824;DHT22;64457;51.976;9.834;2023-04-15T16:35:50;15.30;97.00
75824;DHT22;64457;51.976;9.834;2023-04-15T16:38:18;15.50;96.50
75824;DHT22;64457;51.976;9.834;2023-04-15T16:40:47;15.60;96.30
75824;DHT22;64457;51.976;9.834;2023-04-15T16:43:16;15.70;96.30